EJA238 KPWK-KOXC
Flight info
| Callsign | EJA238 |
|---|---|
| Flight time | N/A |
| Altitude | 41000 |
| Route | MONKZ5 EMEGE FLM REXXY DNY |
| Aircraft | CL60/M-SBDE1E2E3FGHIJ1J4J5J7M3RWXYZ/LB1V1D1 |
Departure
| Time | 2026-05-05 02:27 |
|---|---|
| Airport | Chicago Executive Airport (KPWK) |
Arrival
| Time | N/A |
|---|---|
| Airport | Waterbury Oxford Airport (KOXC) |
| Time | Latitude | Longitude | Altitude | Speed | Heading |
|---|---|---|---|---|---|
| 2026-05-05 02:09 | 42.12001 | -87.90756 | 645 ft | 0 kts | 248° |
| 2026-05-05 02:23 | 42.12001 | -87.90758 | 645 ft | 0 kts | 248° |
| 2026-05-05 02:23 | 42.11998 | -87.90771 | 645 ft | 4 kts | 277° |
| 2026-05-05 02:24 | 42.12040 | -87.90788 | 645 ft | 8 kts | 358° |
| 2026-05-05 02:24 | 42.12073 | -87.90774 | 645 ft | 6 kts | 59° |
| 2026-05-05 02:24 | 42.12130 | -87.90762 | 645 ft | 11 kts | 339° |
| 2026-05-05 02:24 | 42.12213 | -87.90807 | 645 ft | 12 kts | 339° |
| 2026-05-05 02:25 | 42.12285 | -87.90836 | 645 ft | 3 kts | 23° |
| 2026-05-05 02:25 | 42.12305 | -87.90784 | 645 ft | 8 kts | 69° |
| 2026-05-05 02:25 | 42.12320 | -87.90707 | 645 ft | 4 kts | 116° |
| 2026-05-05 02:25 | 42.12284 | -87.90685 | 645 ft | 6 kts | 157° |
| 2026-05-05 02:26 | 42.12280 | -87.90683 | 645 ft | 0 kts | 156° |
| 2026-05-05 02:26 | 42.12264 | -87.90674 | 645 ft | 17 kts | 159° |
| 2026-05-05 02:26 | 42.11831 | -87.90451 | 645 ft | 115 kts | 156° |
| 2026-05-05 02:26 | 42.10818 | -87.89912 | 789 ft | 179 kts | 161° |
| 2026-05-05 02:27 | 42.09593 | -87.89172 | 1542 ft | 204 kts | 160° |
| 2026-05-05 02:27 | 42.08154 | -87.88284 | 2339 ft | 239 kts | 159° |
| 2026-05-05 02:27 | 42.06562 | -87.87348 | 3488 ft | 255 kts | 158° |
| 2026-05-05 02:27 | 42.04940 | -87.86369 | 4948 ft | 255 kts | 160° |
| 2026-05-05 02:28 | 42.03395 | -87.85263 | 6504 ft | 251 kts | 155° |
| 2026-05-05 02:28 | 42.01909 | -87.84005 | 7782 ft | 257 kts | 153° |
| 2026-05-05 02:28 | 42.00358 | -87.82630 | 8813 ft | 273 kts | 152° |
| 2026-05-05 02:28 | 41.98568 | -87.81422 | 9702 ft | 283 kts | 174° |
| 2026-05-05 02:29 | 41.96598 | -87.81117 | 10786 ft | 288 kts | 183° |
| 2026-05-05 02:29 | 41.94513 | -87.80904 | 11709 ft | 305 kts | 182° |
| 2026-05-05 02:29 | 41.92236 | -87.80667 | 12254 ft | 332 kts | 182° |
| 2026-05-05 02:29 | 41.89809 | -87.80385 | 13013 ft | 349 kts | 179° |
| 2026-05-05 02:30 | 41.87328 | -87.79423 | 13958 ft | 371 kts | 160° |
| 2026-05-05 02:30 | 41.84964 | -87.77761 | 15133 ft | 373 kts | 158° |
| 2026-05-05 02:30 | 41.82596 | -87.76111 | 16192 ft | 376 kts | 159° |
| 2026-05-05 02:30 | 41.80230 | -87.74457 | 17209 ft | 380 kts | 158° |
| 2026-05-05 02:31 | 41.77818 | -87.72737 | 18058 ft | 387 kts | 158° |
| 2026-05-05 02:31 | 41.75352 | -87.70980 | 18890 ft | 394 kts | 158° |
| 2026-05-05 02:31 | 41.72876 | -87.69220 | 19655 ft | 400 kts | 159° |
| 2026-05-05 02:31 | 41.70363 | -87.67451 | 20609 ft | 401 kts | 158° |
| 2026-05-05 02:32 | 41.67874 | -87.65681 | 21446 ft | 404 kts | 158° |
| 2026-05-05 02:32 | 41.65336 | -87.63949 | 22124 ft | 407 kts | 162° |
| 2026-05-05 02:32 | 41.62590 | -87.62817 | 22804 ft | 405 kts | 174° |
| 2026-05-05 02:32 | 41.59746 | -87.62055 | 23523 ft | 408 kts | 174° |
| 2026-05-05 02:33 | 41.56910 | -87.61304 | 24332 ft | 409 kts | 174° |
| 2026-05-05 02:33 | 41.54070 | -87.60516 | 25030 ft | 413 kts | 173° |
| 2026-05-05 02:33 | 41.51194 | -87.59720 | 25555 ft | 420 kts | 173° |
| 2026-05-05 02:33 | 41.48247 | -87.58910 | 26136 ft | 424 kts | 173° |
| 2026-05-05 02:34 | 41.45307 | -87.58083 | 26882 ft | 424 kts | 172° |
| 2026-05-05 02:34 | 41.42372 | -87.57281 | 27403 ft | 427 kts | 175° |
| 2026-05-05 02:34 | 41.39410 | -87.56697 | 27811 ft | 432 kts | 177° |
| 2026-05-05 02:34 | 41.36417 | -87.56190 | 28269 ft | 435 kts | 177° |
| 2026-05-05 02:35 | 41.33397 | -87.55674 | 28813 ft | 437 kts | 177° |
| 2026-05-05 02:35 | 41.30353 | -87.55151 | 29443 ft | 436 kts | 177° |
| 2026-05-05 02:35 | 41.27333 | -87.54632 | 30082 ft | 435 kts | 176° |
| 2026-05-05 02:35 | 41.24330 | -87.54116 | 30493 ft | 439 kts | 177° |
| 2026-05-05 02:36 | 41.21571 | -87.53601 | 25147 ft | 535 kts | 172° |
| 2026-05-05 02:36 | 41.20310 | -87.53382 | 12062 ft | 519 kts | 249° |
| 2026-05-05 02:36 | 41.19029 | -87.54646 | 9313 ft | 256 kts | 234° |
| 2026-05-05 02:36 | 41.18112 | -87.55630 | 9874 ft | 178 kts | 217° |